YPPH/PER METAR and TAF weather

Enter ICAO airport designator
Station Type Date Time Source
YPPH METAR 2022/06/27 17:30 UTC NOAA

YPPH 271730Z 18001KT CAVOK 07/06 Q1029


Station Type Date Time Source
YPPH Decoded METAR 2022/06/27 17:30 UTC NOAA

Belmont Perth Airport , Australia (YPPH) 31-56S 115-57E 29M
Jun 27, 2022 - 01:30 PM EDT / 2022.06.27 1730 UTC
Wind: from the S (180 degrees) at 1 MPH (1 KT):0
Visibility: greater than 7 mile(s):0
Temperature: 44 F (7 C)
Dew Point: 42 F (6 C)
Relative Humidity: 93%
Pressure (altimeter): 30.39 in. Hg (1029 hPa)
ob: YPPH 271730Z 18001KT CAVOK 07/06 Q1029
cycle: 17

Station Type Date Time Source
YPPH TAF 2022/06/27 18:38 UTC NOAA

TAF YPPH 271713Z 2718/2900 17009KT CAVOK
FM280000 12010KT CAVOK
FM280900 12007KT 9999 SCT035

Example: see airport list